Aérodrome :
LOGIN :

S'inscrire | Disclaimer

   EN    FR    IT 

 










Légende :    VFR   VFR Marginal   IFR   IFR Intensif   IFR Très Intensif
Visi : 
Plafond : 
>= 8 km
>= 3000ft
5 à 8 km
1000 à 3000 ft
1500m à 5 km
500 à 1000 ft
800 à 1500m
200 à 500 ft
< 800m
< 200 ft
Symboles :   Orages  Brouillard  Fortes neiges  Fortes précipitations  Vent > 20 kt
SIGMETs :   Divers  Orages  Givrage  Turbulence  Onde Orograph.  Cendres Volcan.






- Altitude de l'aérodrome : 659 ft
- Code IATA : LYN


LFLY - Lyon Bron

DERNIER METAR :
  • 200230Z AUTO VRB03KT 7000 OVC050 05/04 Q1026 TEMPO 0500 BCFG

METARs EXPIRÉS :
  • 200200Z AUTO 14004KT 7000 OVC050 05/04 Q1026 TEMPO 0500 BCFG
  • 200130Z AUTO VRB02KT 5000 BR OVC049 04/04 Q1027
  • 200100Z AUTO 24002KT 6000 OVC050 04/04 Q1027 TEMPO 0500 BCFG
  • 200030Z AUTO 23002KT 3300 R34/1400U BR NSC 04/03 Q1027 TEMPO 0500 BCFG
  • 200000Z AUTO VRB02KT 3100 BR NSC 03/03 Q1027 TEMPO 0500 BCFG

TAF TAF LFLY
Valide du 20 à 00h jusqu'au 21 à 00h UTC


192300Z 2000/2024 VRB03KT 6000 NSC
TEMPO 2000/2008 3000 BR
PROB40 2000/2008 0500 BCFG
BECMG 2008/2010 CAVOK
TEMPO 2010/2019 16005KT
ATIS : +33 4 72 15 87 96



MET'MAP, la Météo Aéronautique d'un coup d'oeil ! - Copyright ORBIFLY Décembre 2007 - Disclaimer

ORBIFLY MET'MAP TEAM :

Programmation & Développement : Alexandra Zaïnal
Sur une idée originale de : Baudouin d'Aumeries
Assistance à la programmation : Marc-Olivier Méhu
Soutien technique & logistique : Manuel Goepfert

Contact : metmap@orbifly.com




SOURCES & CREDITS :

   NOAA